sensor_id;sensor_type;location;lat;lon;timestamp;temperature;humidity
702;DHT22;334;48.808;9.222;2022-10-16T00:00:55;19.30;13.30
702;DHT22;334;48.808;9.222;2022-10-16T00:01:57;19.30;13.30
702;DHT22;334;48.808;9.222;2022-10-16T00:02:59;19.30;13.30
702;DHT22;334;48.808;9.222;2022-10-16T00:04:01;19.30;13.30
702;DHT22;334;48.808;9.222;2022-10-16T00:05:03;19.40;13.30
702;DHT22;334;48.808;9.222;2022-10-16T00:06:06;19.30;13.30
702;DHT22;334;48.808;9.222;2022-10-16T00:07:08;19.30;13.30
702;DHT22;334;48.808;9.222;2022-10-16T00:08:11;19.30;13.30
702;DHT22;334;48.808;9.222;2022-10-16T00:09:13;19.50;13.50
702;DHT22;334;48.808;9.222;2022-10-16T00:10:14;19.30;13.30
702;DHT22;334;48.808;9.222;2022-10-16T00:11:20;19.30;13.20
702;DHT22;334;48.808;9.222;2022-10-16T00:12:22;19.30;13.10
702;DHT22;334;48.808;9.222;2022-10-16T00:13:24;19.30;13.10
702;DHT22;334;48.808;9.222;2022-10-16T00:14:26;19.30;13.20
702;DHT22;334;48.808;9.222;2022-10-16T00:15:27;19.30;13.10
702;DHT22;334;48.808;9.222;2022-10-16T00:16:30;19.30;13.20
702;DHT22;334;48.808;9.222;2022-10-16T00:17:31;19.30;13.20
702;DHT22;334;48.808;9.222;2022-10-16T00:18:33;19.30;13.20
702;DHT22;334;48.808;9.222;2022-10-16T00:19:35;19.30;13.20
702;DHT22;334;48.808;9.222;2022-10-16T00:20:37;19.30;13.30
702;DHT22;334;48.808;9.222;2022-10-16T00:21:39;19.30;13.20
702;DHT22;334;48.808;9.222;2022-10-16T00:22:40;19.30;13.40
702;DHT22;334;48.808;9.222;2022-10-16T00:23:42;19.30;13.40
702;DHT22;334;48.808;9.222;2022-10-16T00:24:44;19.30;13.50
702;DHT22;334;48.808;9.222;2022-10-16T00:25:58;19.30;13.60
702;DHT22;334;48.808;9.222;2022-10-16T00:27:07;19.30;13.70
702;DHT22;334;48.808;9.222;2022-10-16T00:28:10;19.30;13.70
702;DHT22;334;48.808;9.222;2022-10-16T00:29:12;19.30;13.70
702;DHT22;334;48.808;9.222;2022-10-16T00:30:14;19.30;13.80
702;DHT22;334;48.808;9.222;2022-10-16T00:31:18;19.30;14.00
702;DHT22;334;48.808;9.222;2022-10-16T00:32:20;19.30;14.10
702;DHT22;334;48.808;9.222;2022-10-16T00:33:22;19.30;14.10
702;DHT22;334;48.808;9.222;2022-10-16T00:34:24;19.30;14.10
702;DHT22;334;48.808;9.222;2022-10-16T00:35:25;19.30;14.10
702;DHT22;334;48.808;9.222;2022-10-16T00:36:27;19.30;14.20
702;DHT22;334;48.808;9.222;2022-10-16T00:37:29;19.20;14.20
702;DHT22;334;48.808;9.222;2022-10-16T00:38:31;19.20;14.40
702;DHT22;334;48.808;9.222;2022-10-16T00:39:33;19.20;14.50
702;DHT22;334;48.808;9.222;2022-10-16T00:40:35;19.20;14.60
702;DHT22;334;48.808;9.222;2022-10-16T00:41:36;19.20;14.70
702;DHT22;334;48.808;9.222;2022-10-16T00:42:38;19.20;15.00
702;DHT22;334;48.808;9.222;2022-10-16T00:43:47;19.10;14.90
702;DHT22;334;48.808;9.222;2022-10-16T00:44:52;19.20;15.00
702;DHT22;334;48.808;9.222;2022-10-16T00:45:54;19.10;14.90
702;DHT22;334;48.808;9.222;2022-10-16T00:46:56;19.10;14.90
702;DHT22;334;48.808;9.222;2022-10-16T00:47:58;19.10;14.90
702;DHT22;334;48.808;9.222;2022-10-16T00:49:12;19.10;14.90
702;DHT22;334;48.808;9.222;2022-10-16T00:50:28;19.10;14.90
702;DHT22;334;48.808;9.222;2022-10-16T00:51:37;19.00;14.90
702;DHT22;334;48.808;9.222;2022-10-16T00:52:43;19.00;14.90
702;DHT22;334;48.808;9.222;2022-10-16T00:53:46;19.00;14.90
702;DHT22;334;48.808;9.222;2022-10-16T00:54:49;19.00;15.40
702;DHT22;334;48.808;9.222;2022-10-16T00:55:51;19.00;15.00
702;DHT22;334;48.808;9.222;2022-10-16T00:56:54;19.00;15.00
702;DHT22;334;48.808;9.222;2022-10-16T00:57:57;19.00;15.20
702;DHT22;334;48.808;9.222;2022-10-16T00:59:02;18.90;15.40
702;DHT22;334;48.808;9.222;2022-10-16T01:00:07;19.00;15.50
702;DHT22;334;48.808;9.222;2022-10-16T01:01:09;19.00;15.60
702;DHT22;334;48.808;9.222;2022-10-16T01:02:14;19.00;15.50
702;DHT22;334;48.808;9.222;2022-10-16T01:03:36;19.00;15.70
702;DHT22;334;48.808;9.222;2022-10-16T01:04:42;18.90;15.90
702;DHT22;334;48.808;9.222;2022-10-16T01:05:52;19.00;15.70
702;DHT22;334;48.808;9.222;2022-10-16T01:08:58;18.90;16.10
702;DHT22;334;48.808;9.222;2022-10-16T01:11:57;18.90;16.50
702;DHT22;334;48.808;9.222;2022-10-16T01:13:16;18.90;16.60
702;DHT22;334;48.808;9.222;2022-10-16T01:15:54;18.80;16.70
702;DHT22;334;48.808;9.222;2022-10-16T01:17:06;18.80;16.60
702;DHT22;334;48.808;9.222;2022-10-16T01:18:34;18.80;16.80
702;DHT22;334;48.808;9.222;2022-10-16T01:21:05;18.80;17.00
702;DHT22;334;48.808;9.222;2022-10-16T01:22:09;18.80;16.90
702;DHT22;334;48.808;9.222;2022-10-16T01:24:44;18.90;17.00
702;DHT22;334;48.808;9.222;2022-10-16T01:27:13;18.90;17.10
702;DHT22;334;48.808;9.222;2022-10-16T01:28:19;18.90;17.00
702;DHT22;334;48.808;9.222;2022-10-16T01:29:40;18.90;16.70
702;DHT22;334;48.808;9.222;2022-10-16T01:30:43;18.90;16.70
702;DHT22;334;48.808;9.222;2022-10-16T01:31:50;18.90;16.60
702;DHT22;334;48.808;9.222;2022-10-16T01:33:01;18.90;16.80
702;DHT22;334;48.808;9.222;2022-10-16T01:34:16;18.90;16.80
702;DHT22;334;48.808;9.222;2022-10-16T01:36:34;18.90;16.80
702;DHT22;334;48.808;9.222;2022-10-16T01:37:48;18.90;16.90
702;DHT22;334;48.808;9.222;2022-10-16T01:38:52;18.90;17.00
702;DHT22;334;48.808;9.222;2022-10-16T01:39:58;18.90;16.80
702;DHT22;334;48.808;9.222;2022-10-16T01:41:27;18.90;16.80
702;DHT22;334;48.808;9.222;2022-10-16T01:42:35;18.90;16.80
702;DHT22;334;48.808;9.222;2022-10-16T01:43:48;18.90;16.80
702;DHT22;334;48.808;9.222;2022-10-16T01:44:52;18.90;16.80
702;DHT22;334;48.808;9.222;2022-10-16T01:45:54;18.90;16.70
702;DHT22;334;48.808;9.222;2022-10-16T01:46:57;18.90;16.70
702;DHT22;334;48.808;9.222;2022-10-16T01:48:00;18.90;16.80
702;DHT22;334;48.808;9.222;2022-10-16T01:49:06;18.90;16.80
702;DHT22;334;48.808;9.222;2022-10-16T01:50:09;18.90;16.80
702;DHT22;334;48.808;9.222;2022-10-16T01:51:13;18.90;16.90
702;DHT22;334;48.808;9.222;2022-10-16T01:52:20;18.90;17.00
702;DHT22;334;48.808;9.222;2022-10-16T01:53:25;18.90;17.00
702;DHT22;334;48.808;9.222;2022-10-16T01:54:29;19.00;16.90
702;DHT22;334;48.808;9.222;2022-10-16T01:55:35;19.00;17.00
702;DHT22;334;48.808;9.222;2022-10-16T01:56:39;19.00;17.00
702;DHT22;334;48.808;9.222;2022-10-16T01:57:44;18.90;16.80
702;DHT22;334;48.808;9.222;2022-10-16T01:58:53;19.00;16.80
702;DHT22;334;48.808;9.222;2022-10-16T01:59:58;18.90;16.90
702;DHT22;334;48.808;9.222;2022-10-16T02:01:04;19.00;17.00
702;DHT22;334;48.808;9.222;2022-10-16T02:02:09;18.90;16.90
702;DHT22;334;48.808;9.222;2022-10-16T02:03:15;18.90;17.00
702;DHT22;334;48.808;9.222;2022-10-16T02:04:50;18.90;16.80
702;DHT22;334;48.808;9.222;2022-10-16T02:05:56;18.90;17.20
702;DHT22;334;48.808;9.222;2022-10-16T02:06:59;18.90;17.10
702;DHT22;334;48.808;9.222;2022-10-16T02:08:02;18.90;17.10
702;DHT22;334;48.808;9.222;2022-10-16T02:09:06;18.80;17.30
702;DHT22;334;48.808;9.222;2022-10-16T02:10:08;18.80;17.40
702;DHT22;334;48.808;9.222;2022-10-16T02:11:11;18.70;17.60
702;DHT22;334;48.808;9.222;2022-10-16T02:12:18;18.70;17.90
702;DHT22;334;48.808;9.222;2022-10-16T02:13:48;18.70;18.10
702;DHT22;334;48.808;9.222;2022-10-16T02:14:48;18.70;18.40
702;DHT22;334;48.808;9.222;2022-10-16T02:15:50;18.70;18.40
702;DHT22;334;48.808;9.222;2022-10-16T02:16:51;18.70;18.40
702;DHT22;334;48.808;9.222;2022-10-16T02:17:53;18.70;18.50
702;DHT22;334;48.808;9.222;2022-10-16T02:18:55;18.70;18.50
702;DHT22;334;48.808;9.222;2022-10-16T02:19:58;18.70;18.40
702;DHT22;334;48.808;9.222;2022-10-16T02:21:17;18.70;18.40
702;DHT22;334;48.808;9.222;2022-10-16T02:22:50;18.70;18.40
702;DHT22;334;48.808;9.222;2022-10-16T02:25:02;18.70;18.50
702;DHT22;334;48.808;9.222;2022-10-16T02:26:06;18.60;18.40
702;DHT22;334;48.808;9.222;2022-10-16T02:28:17;18.60;18.60
702;DHT22;334;48.808;9.222;2022-10-16T02:29:24;18.60;18.70
702;DHT22;334;48.808;9.222;2022-10-16T02:30:39;18.60;18.50
702;DHT22;334;48.808;9.222;2022-10-16T02:31:46;18.60;19.00
702;DHT22;334;48.808;9.222;2022-10-16T02:32:51;18.60;18.80
702;DHT22;334;48.808;9.222;2022-10-16T02:33:57;18.60;18.70
702;DHT22;334;48.808;9.222;2022-10-16T02:35:02;18.70;18.90
702;DHT22;334;48.808;9.222;2022-10-16T02:36:05;18.70;18.80
702;DHT22;334;48.808;9.222;2022-10-16T02:37:07;18.70;18.80
702;DHT22;334;48.808;9.222;2022-10-16T02:38:11;18.70;18.90
702;DHT22;334;48.808;9.222;2022-10-16T02:39:14;18.70;18.90
702;DHT22;334;48.808;9.222;2022-10-16T02:40:17;18.70;18.90
702;DHT22;334;48.808;9.222;2022-10-16T02:41:25;18.70;18.90
702;DHT22;334;48.808;9.222;2022-10-16T02:42:34;18.70;18.90
702;DHT22;334;48.808;9.222;2022-10-16T02:43:37;18.70;18.90
702;DHT22;334;48.808;9.222;2022-10-16T02:44:39;18.70;18.80
702;DHT22;334;48.808;9.222;2022-10-16T02:45:41;18.70;18.90
702;DHT22;334;48.808;9.222;2022-10-16T02:46:42;18.70;18.70
702;DHT22;334;48.808;9.222;2022-10-16T02:47:44;18.70;18.60
702;DHT22;334;48.808;9.222;2022-10-16T02:48:46;18.70;18.80
702;DHT22;334;48.808;9.222;2022-10-16T02:49:48;18.70;18.80
702;DHT22;334;48.808;9.222;2022-10-16T02:50:49;18.70;18.90
702;DHT22;334;48.808;9.222;2022-10-16T02:51:51;18.70;18.90
702;DHT22;334;48.808;9.222;2022-10-16T02:52:53;18.70;19.10
702;DHT22;334;48.808;9.222;2022-10-16T02:53:55;18.70;19.20
702;DHT22;334;48.808;9.222;2022-10-16T02:54:56;18.70;19.10
702;DHT22;334;48.808;9.222;2022-10-16T02:55:58;18.70;19.10
702;DHT22;334;48.808;9.222;2022-10-16T02:57:02;18.70;19.10
702;DHT22;334;48.808;9.222;2022-10-16T02:58:04;18.70;19.20
702;DHT22;334;48.808;9.222;2022-10-16T02:59:06;18.70;19.20
702;DHT22;334;48.808;9.222;2022-10-16T03:00:10;18.70;19.10
702;DHT22;334;48.808;9.222;2022-10-16T03:01:13;18.70;18.90
702;DHT22;334;48.808;9.222;2022-10-16T03:02:16;18.70;19.00
702;DHT22;334;48.808;9.222;2022-10-16T03:03:17;18.70;19.10
702;DHT22;334;48.808;9.222;2022-10-16T03:04:20;18.70;18.90
702;DHT22;334;48.808;9.222;2022-10-16T03:05:22;18.70;18.90
702;DHT22;334;48.808;9.222;2022-10-16T03:06:23;18.70;19.00
702;DHT22;334;48.808;9.222;2022-10-16T03:07:25;18.60;19.00
702;DHT22;334;48.808;9.222;2022-10-16T03:08:27;18.60;19.10
702;DHT22;334;48.808;9.222;2022-10-16T03:09:29;18.60;19.10
702;DHT22;334;48.808;9.222;2022-10-16T03:10:30;18.60;19.30
702;DHT22;334;48.808;9.222;2022-10-16T03:11:32;18.60;19.30
702;DHT22;334;48.808;9.222;2022-10-16T03:12:34;18.60;19.30
702;DHT22;334;48.808;9.222;2022-10-16T03:13:35;18.60;19.30
702;DHT22;334;48.808;9.222;2022-10-16T03:14:37;18.60;19.40
702;DHT22;334;48.808;9.222;2022-10-16T03:15:41;18.60;19.40
702;DHT22;334;48.808;9.222;2022-10-16T03:16:43;18.70;19.40
702;DHT22;334;48.808;9.222;2022-10-16T03:17:44;18.70;19.30
702;DHT22;334;48.808;9.222;2022-10-16T03:18:49;18.70;19.20
702;DHT22;334;48.808;9.222;2022-10-16T03:19:51;18.60;19.30
702;DHT22;334;48.808;9.222;2022-10-16T03:20:53;18.70;19.30
702;DHT22;334;48.808;9.222;2022-10-16T03:21:55;18.70;19.30
702;DHT22;334;48.808;9.222;2022-10-16T03:22:56;18.60;19.30
702;DHT22;334;48.808;9.222;2022-10-16T03:23:58;18.70;19.30
702;DHT22;334;48.808;9.222;2022-10-16T03:25:00;18.60;19.30
702;DHT22;334;48.808;9.222;2022-10-16T03:26:02;18.70;19.40
702;DHT22;334;48.808;9.222;2022-10-16T03:27:03;18.70;19.30
702;DHT22;334;48.808;9.222;2022-10-16T03:28:06;18.70;19.20
702;DHT22;334;48.808;9.222;2022-10-16T03:29:08;18.70;19.20
702;DHT22;334;48.808;9.222;2022-10-16T03:30:10;18.70;19.00
702;DHT22;334;48.808;9.222;2022-10-16T03:31:12;18.70;19.20
702;DHT22;334;48.808;9.222;2022-10-16T03:32:14;18.80;19.30
702;DHT22;334;48.808;9.222;2022-10-16T03:33:16;18.70;19.30
702;DHT22;334;48.808;9.222;2022-10-16T03:34:17;18.50;19.10
702;DHT22;334;48.808;9.222;2022-10-16T03:35:20;18.70;19.20
702;DHT22;334;48.808;9.222;2022-10-16T03:36:22;18.70;19.20
702;DHT22;334;48.808;9.222;2022-10-16T03:37:24;18.70;19.20
702;DHT22;334;48.808;9.222;2022-10-16T03:38:28;18.70;19.20
702;DHT22;334;48.808;9.222;2022-10-16T03:39:29;18.70;19.70
702;DHT22;334;48.808;9.222;2022-10-16T03:40:31;18.70;19.20
702;DHT22;334;48.808;9.222;2022-10-16T03:41:36;18.70;19.10
702;DHT22;334;48.808;9.222;2022-10-16T03:42:37;18.70;19.20
702;DHT22;334;48.808;9.222;2022-10-16T03:43:39;18.70;19.00
702;DHT22;334;48.808;9.222;2022-10-16T03:44:41;18.70;19.00
702;DHT22;334;48.808;9.222;2022-10-16T03:45:42;18.70;19.00
702;DHT22;334;48.808;9.222;2022-10-16T03:46:44;18.70;19.10
702;DHT22;334;48.808;9.222;2022-10-16T03:47:46;18.70;19.00
702;DHT22;334;48.808;9.222;2022-10-16T03:48:48;18.70;19.10
702;DHT22;334;48.808;9.222;2022-10-16T03:49:50;18.70;19.20
702;DHT22;334;48.808;9.222;2022-10-16T03:50:52;18.70;19.00
702;DHT22;334;48.808;9.222;2022-10-16T03:51:53;18.60;18.90
702;DHT22;334;48.808;9.222;2022-10-16T03:52:55;18.70;19.00
702;DHT22;334;48.808;9.222;2022-10-16T03:53:57;18.70;19.00
702;DHT22;334;48.808;9.222;2022-10-16T03:54:58;18.70;19.00
702;DHT22;334;48.808;9.222;2022-10-16T03:56:00;18.60;19.00
702;DHT22;334;48.808;9.222;2022-10-16T03:57:02;18.70;19.10
702;DHT22;334;48.808;9.222;2022-10-16T03:58:03;18.60;19.00
702;DHT22;334;48.808;9.222;2022-10-16T03:59:05;18.60;19.00
702;DHT22;334;48.808;9.222;2022-10-16T04:00:07;18.60;19.10
702;DHT22;334;48.808;9.222;2022-10-16T04:01:09;18.60;19.10
702;DHT22;334;48.808;9.222;2022-10-16T04:02:11;18.70;19.20
702;DHT22;334;48.808;9.222;2022-10-16T04:03:13;18.60;19.10
702;DHT22;334;48.808;9.222;2022-10-16T04:04:14;18.60;19.20
702;DHT22;334;48.808;9.222;2022-10-16T04:05:16;18.60;19.20
702;DHT22;334;48.808;9.222;2022-10-16T04:06:18;18.60;19.30
702;DHT22;334;48.808;9.222;2022-10-16T04:07:19;18.60;19.30
702;DHT22;334;48.808;9.222;2022-10-16T04:08:21;18.60;19.40
702;DHT22;334;48.808;9.222;2022-10-16T04:09:23;18.80;19.60
702;DHT22;334;48.808;9.222;2022-10-16T04:10:25;18.60;19.60
702;DHT22;334;48.808;9.222;2022-10-16T04:11:28;18.70;19.60
702;DHT22;334;48.808;9.222;2022-10-16T04:12:30;18.50;19.50
702;DHT22;334;48.808;9.222;2022-10-16T04:13:32;18.50;19.50
702;DHT22;334;48.808;9.222;2022-10-16T04:14:34;18.50;19.70
702;DHT22;334;48.808;9.222;2022-10-16T04:15:36;18.50;19.70
702;DHT22;334;48.808;9.222;2022-10-16T04:16:37;18.50;19.70
702;DHT22;334;48.808;9.222;2022-10-16T04:17:39;18.50;20.00
702;DHT22;334;48.808;9.222;2022-10-16T04:18:41;18.40;20.00
702;DHT22;334;48.808;9.222;2022-10-16T04:19:42;18.40;20.10
702;DHT22;334;48.808;9.222;2022-10-16T04:20:44;18.40;20.20
702;DHT22;334;48.808;9.222;2022-10-16T04:21:46;18.40;20.30
702;DHT22;334;48.808;9.222;2022-10-16T04:22:48;18.40;20.30
702;DHT22;334;48.808;9.222;2022-10-16T04:23:49;18.40;20.40
702;DHT22;334;48.808;9.222;2022-10-16T04:24:51;18.30;20.60
702;DHT22;334;48.808;9.222;2022-10-16T04:25:53;18.30;20.50
702;DHT22;334;48.808;9.222;2022-10-16T04:26:54;18.30;20.80
702;DHT22;334;48.808;9.222;2022-10-16T04:27:56;18.30;20.90
702;DHT22;334;48.808;9.222;2022-10-16T04:28:58;18.30;21.00
702;DHT22;334;48.808;9.222;2022-10-16T04:30:00;18.30;21.20
702;DHT22;334;48.808;9.222;2022-10-16T04:31:05;18.30;21.10
702;DHT22;334;48.808;9.222;2022-10-16T04:32:10;18.30;21.40
702;DHT22;334;48.808;9.222;2022-10-16T04:33:12;18.20;21.60
702;DHT22;334;48.808;9.222;2022-10-16T04:34:14;18.30;21.60
702;DHT22;334;48.808;9.222;2022-10-16T04:35:17;18.20;21.50
702;DHT22;334;48.808;9.222;2022-10-16T04:36:19;18.30;21.40
702;DHT22;334;48.808;9.222;2022-10-16T04:37:27;18.30;21.30
702;DHT22;334;48.808;9.222;2022-10-16T04:38:29;18.20;21.20
702;DHT22;334;48.808;9.222;2022-10-16T04:39:31;18.20;21.20
702;DHT22;334;48.808;9.222;2022-10-16T04:40:33;18.20;21.40
702;DHT22;334;48.808;9.222;2022-10-16T04:41:37;18.20;21.30
702;DHT22;334;48.808;9.222;2022-10-16T04:42:39;18.20;21.30
702;DHT22;334;48.808;9.222;2022-10-16T04:43:40;18.20;21.50
702;DHT22;334;48.808;9.222;2022-10-16T04:44:42;18.20;21.70
702;DHT22;334;48.808;9.222;2022-10-16T04:45:44;18.20;21.70
702;DHT22;334;48.808;9.222;2022-10-16T04:46:45;18.20;21.60
702;DHT22;334;48.808;9.222;2022-10-16T04:47:47;18.20;21.50
702;DHT22;334;48.808;9.222;2022-10-16T04:48:49;18.20;21.80
702;DHT22;334;48.808;9.222;2022-10-16T04:49:51;18.20;21.90
702;DHT22;334;48.808;9.222;2022-10-16T04:50:53;18.20;21.90
702;DHT22;334;48.808;9.222;2022-10-16T04:51:55;18.20;21.90
702;DHT22;334;48.808;9.222;2022-10-16T04:52:57;18.20;21.90
702;DHT22;334;48.808;9.222;2022-10-16T04:53:59;18.20;21.90
702;DHT22;334;48.808;9.222;2022-10-16T04:55:00;18.20;21.90
702;DHT22;334;48.808;9.222;2022-10-16T04:56:04;18.20;21.90
702;DHT22;334;48.808;9.222;2022-10-16T04:57:06;18.20;21.90
702;DHT22;334;48.808;9.222;2022-10-16T04:58:08;18.20;21.90
702;DHT22;334;48.808;9.222;2022-10-16T04:59:10;18.20;21.90
702;DHT22;334;48.808;9.222;2022-10-16T05:00:12;18.10;21.80
702;DHT22;334;48.808;9.222;2022-10-16T05:01:14;18.20;21.90
702;DHT22;334;48.808;9.222;2022-10-16T05:02:15;18.20;21.90
702;DHT22;334;48.808;9.222;2022-10-16T05:03:17;18.20;21.90
702;DHT22;334;48.808;9.222;2022-10-16T05:04:19;18.20;21.90
702;DHT22;334;48.808;9.222;2022-10-16T05:05:21;18.20;21.90
702;DHT22;334;48.808;9.222;2022-10-16T05:06:23;18.20;21.90
702;DHT22;334;48.808;9.222;2022-10-16T05:07:24;18.20;21.90
702;DHT22;334;48.808;9.222;2022-10-16T05:08:26;18.20;21.90
702;DHT22;334;48.808;9.222;2022-10-16T05:09:28;18.20;21.90
702;DHT22;334;48.808;9.222;2022-10-16T05:10:30;18.20;21.90
702;DHT22;334;48.808;9.222;2022-10-16T05:11:32;18.20;21.90
702;DHT22;334;48.808;9.222;2022-10-16T05:12:33;18.20;21.90
702;DHT22;334;48.808;9.222;2022-10-16T05:13:35;18.20;21.90
702;DHT22;334;48.808;9.222;2022-10-16T05:14:37;18.20;21.90
702;DHT22;334;48.808;9.222;2022-10-16T05:15:39;18.20;21.90
702;DHT22;334;48.808;9.222;2022-10-16T05:16:40;18.20;21.90
702;DHT22;334;48.808;9.222;2022-10-16T05:17:42;18.20;21.90
702;DHT22;334;48.808;9.222;2022-10-16T05:18:45;18.20;21.90
702;DHT22;334;48.808;9.222;2022-10-16T05:19:47;18.20;21.90
702;DHT22;334;48.808;9.222;2022-10-16T05:20:48;18.20;21.90
702;DHT22;334;48.808;9.222;2022-10-16T05:21:50;18.20;21.90
702;DHT22;334;48.808;9.222;2022-10-16T05:22:53;18.20;21.90
702;DHT22;334;48.808;9.222;2022-10-16T05:23:54;18.30;22.00
702;DHT22;334;48.808;9.222;2022-10-16T05:24:56;18.30;22.00
702;DHT22;334;48.808;9.222;2022-10-16T05:25:59;18.30;22.00
702;DHT22;334;48.808;9.222;2022-10-16T05:27:01;18.30;22.00
702;DHT22;334;48.808;9.222;2022-10-16T05:28:03;18.30;22.00
702;DHT22;334;48.808;9.222;2022-10-16T05:29:05;18.30;21.80
702;DHT22;334;48.808;9.222;2022-10-16T05:30:07;18.30;21.80
702;DHT22;334;48.808;9.222;2022-10-16T05:31:13;18.30;21.80
702;DHT22;334;48.808;9.222;2022-10-16T05:32:15;18.30;22.00
702;DHT22;334;48.808;9.222;2022-10-16T05:33:19;18.30;21.80
702;DHT22;334;48.808;9.222;2022-10-16T05:34:21;18.30;21.90
702;DHT22;334;48.808;9.222;2022-10-16T05:35:23;18.30;21.80
702;DHT22;334;48.808;9.222;2022-10-16T05:36:25;18.30;21.80
702;DHT22;334;48.808;9.222;2022-10-16T05:37:29;18.30;21.70
702;DHT22;334;48.808;9.222;2022-10-16T05:38:31;18.30;22.00
702;DHT22;334;48.808;9.222;2022-10-16T05:39:33;18.30;22.00
702;DHT22;334;48.808;9.222;2022-10-16T05:40:35;18.30;21.80
702;DHT22;334;48.808;9.222;2022-10-16T05:41:36;18.30;21.80
702;DHT22;334;48.808;9.222;2022-10-16T05:42:40;18.30;22.00
702;DHT22;334;48.808;9.222;2022-10-16T05:43:42;18.30;22.00
702;DHT22;334;48.808;9.222;2022-10-16T05:44:43;18.20;21.90
702;DHT22;334;48.808;9.222;2022-10-16T05:45:57;18.20;21.90
702;DHT22;334;48.808;9.222;2022-10-16T05:46:59;18.20;21.90
702;DHT22;334;48.808;9.222;2022-10-16T05:48:01;18.20;21.90
702;DHT22;334;48.808;9.222;2022-10-16T05:49:02;18.20;21.90
702;DHT22;334;48.808;9.222;2022-10-16T05:50:04;18.20;21.90
702;DHT22;334;48.808;9.222;2022-10-16T05:51:09;18.20;21.90
702;DHT22;334;48.808;9.222;2022-10-16T05:52:12;18.20;21.90
702;DHT22;334;48.808;9.222;2022-10-16T05:53:13;18.20;21.90
702;DHT22;334;48.808;9.222;2022-10-16T05:54:15;18.20;21.90
702;DHT22;334;48.808;9.222;2022-10-16T05:55:17;18.20;21.90
702;DHT22;334;48.808;9.222;2022-10-16T05:56:18;18.20;21.90
702;DHT22;334;48.808;9.222;2022-10-16T05:57:20;18.20;21.90
702;DHT22;334;48.808;9.222;2022-10-16T05:58:23;18.20;21.90
702;DHT22;334;48.808;9.222;2022-10-16T05:59:25;18.20;21.90
702;DHT22;334;48.808;9.222;2022-10-16T06:00:28;18.20;21.90
702;DHT22;334;48.808;9.222;2022-10-16T06:01:30;18.20;21.90
702;DHT22;334;48.808;9.222;2022-10-16T06:02:32;18.20;21.90
702;DHT22;334;48.808;9.222;2022-10-16T06:03:34;18.20;21.90
702;DHT22;334;48.808;9.222;2022-10-16T06:04:37;18.20;21.90
702;DHT22;334;48.808;9.222;2022-10-16T06:05:40;18.20;21.90
702;DHT22;334;48.808;9.222;2022-10-16T06:06:44;18.20;21.90
702;DHT22;334;48.808;9.222;2022-10-16T06:07:45;18.20;22.00
702;DHT22;334;48.808;9.222;2022-10-16T06:08:49;18.20;21.90
702;DHT22;334;48.808;9.222;2022-10-16T06:09:52;18.30;22.00
702;DHT22;334;48.808;9.222;2022-10-16T06:11:08;18.30;22.00
702;DHT22;334;48.808;9.222;2022-10-16T06:12:10;18.30;22.00
702;DHT22;334;48.808;9.222;2022-10-16T06:13:13;18.30;22.00
702;DHT22;334;48.808;9.222;2022-10-16T06:14:14;18.30;22.00
702;DHT22;334;48.808;9.222;2022-10-16T06:15:16;18.30;22.00
702;DHT22;334;48.808;9.222;2022-10-16T06:16:18;18.30;22.00
702;DHT22;334;48.808;9.222;2022-10-16T06:17:20;18.30;22.00
702;DHT22;334;48.808;9.222;2022-10-16T06:18:21;18.30;22.00
702;DHT22;334;48.808;9.222;2022-10-16T06:19:23;18.30;21.80
702;DHT22;334;48.808;9.222;2022-10-16T06:20:26;18.30;21.80
702;DHT22;334;48.808;9.222;2022-10-16T06:21:28;18.30;21.60
702;DHT22;334;48.808;9.222;2022-10-16T06:22:31;18.30;21.50
702;DHT22;334;48.808;9.222;2022-10-16T06:23:33;18.30;21.40
702;DHT22;334;48.808;9.222;2022-10-16T06:24:36;18.40;21.40
702;DHT22;334;48.808;9.222;2022-10-16T06:25:37;18.30;21.30
702;DHT22;334;48.808;9.222;2022-10-16T06:26:39;18.30;21.30
702;DHT22;334;48.808;9.222;2022-10-16T06:27:41;18.40;21.50
702;DHT22;334;48.808;9.222;2022-10-16T06:28:42;18.40;21.40
702;DHT22;334;48.808;9.222;2022-10-16T06:29:47;18.40;21.50
702;DHT22;334;48.808;9.222;2022-10-16T06:30:49;18.40;21.30
702;DHT22;334;48.808;9.222;2022-10-16T06:31:50;18.40;21.10
702;DHT22;334;48.808;9.222;2022-10-16T06:32:52;18.40;21.10
702;DHT22;334;48.808;9.222;2022-10-16T06:33:54;18.40;21.10
702;DHT22;334;48.808;9.222;2022-10-16T06:34:55;18.40;21.00
702;DHT22;334;48.808;9.222;2022-10-16T06:36:24;18.40;21.00
702;DHT22;334;48.808;9.222;2022-10-16T06:37:26;18.40;21.20
702;DHT22;334;48.808;9.222;2022-10-16T06:38:29;18.40;21.00
702;DHT22;334;48.808;9.222;2022-10-16T06:39:31;18.40;21.00
702;DHT22;334;48.808;9.222;2022-10-16T06:40:33;18.40;21.00
702;DHT22;334;48.808;9.222;2022-10-16T06:41:35;18.40;20.90
702;DHT22;334;48.808;9.222;2022-10-16T06:42:38;18.40;20.80
702;DHT22;334;48.808;9.222;2022-10-16T06:43:40;18.40;20.80
702;DHT22;334;48.808;9.222;2022-10-16T06:44:42;18.40;20.80
702;DHT22;334;48.808;9.222;2022-10-16T06:45:43;18.40;20.80
702;DHT22;334;48.808;9.222;2022-10-16T06:46:51;18.40;20.70
702;DHT22;334;48.808;9.222;2022-10-16T06:47:53;18.50;20.70
702;DHT22;334;48.808;9.222;2022-10-16T06:48:55;18.40;20.60
702;DHT22;334;48.808;9.222;2022-10-16T06:49:57;18.50;21.30
702;DHT22;334;48.808;9.222;2022-10-16T06:51:00;18.40;20.40
702;DHT22;334;48.808;9.222;2022-10-16T06:52:08;18.40;20.50
702;DHT22;334;48.808;9.222;2022-10-16T06:53:10;18.40;20.60
702;DHT22;334;48.808;9.222;2022-10-16T06:54:12;18.40;20.40
702;DHT22;334;48.808;9.222;2022-10-16T06:55:13;18.40;20.50
702;DHT22;334;48.808;9.222;2022-10-16T06:56:19;18.40;20.60
702;DHT22;334;48.808;9.222;2022-10-16T06:57:21;18.30;20.50
702;DHT22;334;48.808;9.222;2022-10-16T06:58:23;18.30;20.50
702;DHT22;334;48.808;9.222;2022-10-16T06:59:25;18.30;20.60
702;DHT22;334;48.808;9.222;2022-10-16T07:00:27;18.30;20.90
702;DHT22;334;48.808;9.222;2022-10-16T07:01:29;18.30;21.10
702;DHT22;334;48.808;9.222;2022-10-16T07:02:31;18.30;21.10
702;DHT22;334;48.808;9.222;2022-10-16T07:03:33;18.30;21.20
702;DHT22;334;48.808;9.222;2022-10-16T07:04:37;18.30;21.20
702;DHT22;334;48.808;9.222;2022-10-16T07:05:39;18.30;21.50
702;DHT22;334;48.808;9.222;2022-10-16T07:06:41;18.30;21.60
702;DHT22;334;48.808;9.222;2022-10-16T07:07:43;18.30;21.90
702;DHT22;334;48.808;9.222;2022-10-16T07:08:46;18.40;21.70
702;DHT22;334;48.808;9.222;2022-10-16T07:09:47;18.40;21.60
702;DHT22;334;48.808;9.222;2022-10-16T07:11:01;18.40;21.30
702;DHT22;334;48.808;9.222;2022-10-16T07:12:03;18.50;21.40
702;DHT22;334;48.808;9.222;2022-10-16T07:13:05;18.50;21.30
702;DHT22;334;48.808;9.222;2022-10-16T07:14:19;18.50;21.20
702;DHT22;334;48.808;9.222;2022-10-16T07:15:21;18.50;21.20
702;DHT22;334;48.808;9.222;2022-10-16T07:16:28;18.50;21.20
702;DHT22;334;48.808;9.222;2022-10-16T07:17:30;18.60;21.10
702;DHT22;334;48.808;9.222;2022-10-16T07:18:32;18.60;21.00
702;DHT22;334;48.808;9.222;2022-10-16T07:19:34;18.60;20.90
702;DHT22;334;48.808;9.222;2022-10-16T07:20:35;18.60;20.80
702;DHT22;334;48.808;9.222;2022-10-16T07:21:38;18.60;20.80
702;DHT22;334;48.808;9.222;2022-10-16T07:22:40;18.60;20.90